createdAt,value
2017-10-18T00:00:15.866Z,35.07
2017-10-18T00:02:43.413Z,37.10
2017-10-18T00:05:10.931Z,37.33
2017-10-18T00:07:39.229Z,34.87
2017-10-18T00:10:07.543Z,36.90
2017-10-18T00:12:35.057Z,39.50
2017-10-18T00:15:02.618Z,38.17
2017-10-18T00:17:30.151Z,36.67
2017-10-18T00:19:57.711Z,39.60
2017-10-18T00:22:25.226Z,39.23
2017-10-18T00:24:52.777Z,42.43
2017-10-18T00:27:20.292Z,39.87
2017-10-18T00:29:47.857Z,38.43
2017-10-18T00:32:15.369Z,45.37
2017-10-18T00:34:42.874Z,40.67
2017-10-18T00:37:10.423Z,37.37
2017-10-18T00:39:37.938Z,37.13
2017-10-18T00:42:05.483Z,38.37
2017-10-18T00:44:33.009Z,37.87
2017-10-18T00:47:00.557Z,36.90
2017-10-18T00:49:28.065Z,34.53
2017-10-18T00:51:56.370Z,37.90
2017-10-18T00:54:23.919Z,41.30
2017-10-18T00:56:51.518Z,40.10
2017-10-18T00:59:19.029Z,39.70
2017-10-18T01:01:46.633Z,40.33
2017-10-18T01:04:14.943Z,36.40
2017-10-18T01:06:42.473Z,38.40
2017-10-18T01:09:10.045Z,40.90
2017-10-18T01:11:37.558Z,37.60
2017-10-18T01:14:05.866Z,37.47
2017-10-18T01:16:33.382Z,38.00
2017-10-18T01:19:00.927Z,35.53
2017-10-18T01:21:28.445Z,36.00
2017-10-18T01:23:56.005Z,37.10
2017-10-18T01:26:23.522Z,35.50
2017-10-18T01:28:52.070Z,32.90
2017-10-18T01:31:19.613Z,32.63
2017-10-18T01:33:47.141Z,32.27
2017-10-18T01:36:14.685Z,32.80
2017-10-18T01:38:42.230Z,31.50
2017-10-18T01:41:09.775Z,33.57
2017-10-18T01:43:37.287Z,32.77
2017-10-18T01:46:04.833Z,32.50
2017-10-18T01:48:32.346Z,32.90
2017-10-18T01:50:59.898Z,30.90
2017-10-18T01:53:27.409Z,33.40
2017-10-18T01:56:01.789Z,29.57
2017-10-18T01:58:29.379Z,30.10
2017-10-18T02:00:56.891Z,29.30
2017-10-18T02:03:25.207Z,29.20
2017-10-18T02:05:52.861Z,26.80
2017-10-18T02:08:21.170Z,29.00
2017-10-18T02:10:48.696Z,28.30
2017-10-18T02:13:16.243Z,29.57
2017-10-18T02:15:45.334Z,30.20
2017-10-18T02:18:12.896Z,33.70
2017-10-18T02:20:40.414Z,32.90
2017-10-18T02:23:07.987Z,38.10
2017-10-18T02:25:36.070Z,36.23
2017-10-18T02:28:03.592Z,42.27
2017-10-18T02:30:31.143Z,38.13
2017-10-18T02:32:59.430Z,38.40
2017-10-18T02:35:27.747Z,42.30
2017-10-18T02:37:55.261Z,38.50
2017-10-18T02:40:22.862Z,45.60
2017-10-18T02:42:51.190Z,41.20
2017-10-18T02:45:18.747Z,40.00
2017-10-18T02:47:46.312Z,43.43
2017-10-18T02:50:14.642Z,41.80
2017-10-18T02:52:42.163Z,42.53
2017-10-18T02:55:09.751Z,44.73
2017-10-18T02:57:37.273Z,48.53
2017-10-18T03:00:04.851Z,46.10
2017-10-18T03:02:32.365Z,50.37
2017-10-18T03:04:59.888Z,52.37
2017-10-18T03:07:27.465Z,45.60
2017-10-18T03:09:55.010Z,46.40
2017-10-18T03:12:22.570Z,51.10
2017-10-18T03:14:50.086Z,55.87
2017-10-18T03:17:17.629Z,54.83
2017-10-18T03:19:45.139Z,57.33
2017-10-18T03:22:12.831Z,54.17
2017-10-18T03:24:40.417Z,54.03
2017-10-18T03:27:08.764Z,54.40
2017-10-18T03:29:36.274Z,56.47
2017-10-18T03:32:04.562Z,58.33
2017-10-18T03:34:32.894Z,54.67
2017-10-18T03:37:00.414Z,52.73
2017-10-18T03:39:27.970Z,53.73
2017-10-18T03:41:55.491Z,51.40
2017-10-18T03:44:23.054Z,57.03
2017-10-18T03:46:50.571Z,53.10
2017-10-18T03:49:18.142Z,53.07
2017-10-18T03:51:45.662Z,47.93
2017-10-18T03:54:14.020Z,49.13
2017-10-18T03:56:41.537Z,50.23
2017-10-18T03:59:09.090Z,43.00
2017-10-18T04:01:37.382Z,38.63
2017-10-18T04:04:04.979Z,40.33
2017-10-18T04:06:32.505Z,38.30
2017-10-18T04:09:00.034Z,42.63
2017-10-18T04:11:27.615Z,43.47
2017-10-18T04:13:55.927Z,47.47
2017-10-18T04:16:23.482Z,51.03
2017-10-18T04:18:51.002Z,49.70
2017-10-18T04:21:19.318Z,56.27
2017-10-18T04:23:46.948Z,55.57
2017-10-18T04:26:15.303Z,54.20
2017-10-18T04:28:42.826Z,53.90
2017-10-18T04:31:10.406Z,51.30
2017-10-18T04:33:38.684Z,54.00
2017-10-18T04:36:06.596Z,50.67
2017-10-18T04:38:34.110Z,53.20
2017-10-18T04:41:01.630Z,54.60
2017-10-18T04:43:29.200Z,51.73
2017-10-18T04:45:56.713Z,50.37
2017-10-18T04:48:24.270Z,45.30
2017-10-18T04:50:51.804Z,53.97
2017-10-18T04:53:20.129Z,53.57
2017-10-18T04:55:47.646Z,55.83
2017-10-18T04:58:15.201Z,56.67
2017-10-18T05:00:42.718Z,55.03
2017-10-18T05:03:11.049Z,60.40
2017-10-18T05:05:38.566Z,64.20
2017-10-18T05:08:06.886Z,62.70
2017-10-18T05:10:34.410Z,59.60
2017-10-18T05:13:01.976Z,58.30
2017-10-18T05:15:29.494Z,67.30
2017-10-18T05:17:57.207Z,65.00
2017-10-18T05:20:24.728Z,64.73
2017-10-18T05:22:53.010Z,56.77
2017-10-18T05:25:21.326Z,53.40
2017-10-18T05:27:49.723Z,47.67
2017-10-18T05:30:17.454Z,52.43
2017-10-18T05:32:44.979Z,50.00
2017-10-18T05:35:12.544Z,52.60
2017-10-18T05:37:40.081Z,49.83
2017-10-18T05:40:08.408Z,47.17
2017-10-18T05:42:35.947Z,49.87
2017-10-18T05:45:03.536Z,47.33
2017-10-18T05:47:31.060Z,50.27
2017-10-18T05:49:58.627Z,57.97
2017-10-18T05:52:26.166Z,58.13
2017-10-18T05:54:53.693Z,53.63
2017-10-18T05:57:21.257Z,52.80
2017-10-18T05:59:48.820Z,50.03
2017-10-18T06:02:16.386Z,48.30
2017-10-18T06:04:43.918Z,44.47
2017-10-18T06:07:11.471Z,44.47
2017-10-18T06:09:39.028Z,41.27
2017-10-18T06:12:06.630Z,39.40
2017-10-18T06:14:34.162Z,37.77
2017-10-18T06:17:01.698Z,39.40
2017-10-18T06:19:29.254Z,35.60
2017-10-18T06:21:56.770Z,35.90
2017-10-18T06:24:25.088Z,39.20
2017-10-18T06:26:52.599Z,38.23
2017-10-18T06:29:20.774Z,39.80
2017-10-18T06:31:49.335Z,41.90
2017-10-18T06:34:16.905Z,44.60
2017-10-18T06:36:44.436Z,50.37
2017-10-18T06:39:11.953Z,57.70
2017-10-18T06:41:39.509Z,49.87
2017-10-18T06:44:07.028Z,45.67
2017-10-18T06:46:34.654Z,34.00
2017-10-18T06:49:02.161Z,32.23
2017-10-18T06:51:30.478Z,28.90
2017-10-18T06:53:57.990Z,27.50
2017-10-18T06:56:25.534Z,27.57
2017-10-18T06:58:53.050Z,23.17
2017-10-18T07:01:20.591Z,22.37
2017-10-18T07:03:48.162Z,23.50
2017-10-18T07:06:15.674Z,27.10
2017-10-18T07:08:43.226Z,25.60
2017-10-18T07:11:10.767Z,25.37
2017-10-18T07:13:38.345Z,24.57
2017-10-18T07:16:05.851Z,22.80
2017-10-18T07:18:33.406Z,21.07
2017-10-18T07:21:00.924Z,19.97
2017-10-18T07:23:28.465Z,20.10
2017-10-18T07:25:55.978Z,19.20
2017-10-18T07:28:23.606Z,18.60
2017-10-18T07:30:51.116Z,21.30
2017-10-18T07:33:18.634Z,18.40
2017-10-18T07:35:46.173Z,18.10
2017-10-18T07:38:13.694Z,19.57
2017-10-18T07:40:41.242Z,18.67
2017-10-18T07:43:08.761Z,17.57
2017-10-18T07:45:37.070Z,18.40
2017-10-18T07:48:04.774Z,17.17
2017-10-18T07:50:32.338Z,17.60
2017-10-18T07:52:59.847Z,18.40
2017-10-18T07:55:27.354Z,16.00
2017-10-18T07:57:54.910Z,17.60
2017-10-18T08:00:23.194Z,16.67
2017-10-18T08:02:51.742Z,14.80
2017-10-18T08:05:20.027Z,16.40
2017-10-18T08:07:47.578Z,16.73
2017-10-18T08:10:15.098Z,15.33
2017-10-18T08:12:42.672Z,16.33
2017-10-18T08:15:10.812Z,16.63
2017-10-18T08:17:38.350Z,14.53
2017-10-18T08:20:05.906Z,14.50
2017-10-18T08:22:33.421Z,14.90
2017-10-18T08:25:01.731Z,13.30
2017-10-18T08:27:29.258Z,15.30
2017-10-18T08:29:56.807Z,14.23
2017-10-18T08:32:24.323Z,14.17
2017-10-18T08:34:52.638Z,14.50
2017-10-18T08:37:20.154Z,12.53
2017-10-18T08:39:47.704Z,13.77
2017-10-18T08:42:15.229Z,13.13
2017-10-18T08:44:42.783Z,11.90
2017-10-18T08:47:11.063Z,12.53
2017-10-18T08:49:38.586Z,12.40
2017-10-18T08:52:06.133Z,12.50
2017-10-18T08:54:33.642Z,12.30
2017-10-18T08:57:01.195Z,11.43
2017-10-18T08:59:28.706Z,10.30
2017-10-18T09:01:56.258Z,9.83
2017-10-18T09:04:23.779Z,11.60
2017-10-18T09:06:52.085Z,10.40
2017-10-18T09:09:19.589Z,9.80
2017-10-18T09:11:47.154Z,10.47
2017-10-18T09:14:14.691Z,10.43
2017-10-18T09:16:43.010Z,10.07
2017-10-18T09:19:10.518Z,10.37
2017-10-18T09:21:38.086Z,9.90
2017-10-18T09:24:06.427Z,9.70
2017-10-18T09:26:33.946Z,8.10
2017-10-18T09:29:01.574Z,9.20
2017-10-18T09:31:29.079Z,8.40
2017-10-18T09:33:56.629Z,8.37
2017-10-18T09:36:24.143Z,8.50
2017-10-18T09:38:51.699Z,7.60
2017-10-18T09:41:19.196Z,8.03
2017-10-18T09:43:46.831Z,8.10
2017-10-18T09:46:14.350Z,6.90
2017-10-18T09:48:41.857Z,5.77
2017-10-18T09:51:09.403Z,6.80
2017-10-18T09:53:37.680Z,7.23
2017-10-18T09:56:05.227Z,6.60
2017-10-18T09:58:32.738Z,6.70
2017-10-18T10:01:01.047Z,7.03
2017-10-18T10:03:28.565Z,6.90
2017-10-18T10:05:56.218Z,6.40
2017-10-18T10:08:23.727Z,7.50
2017-10-18T10:10:51.280Z,6.67
2017-10-18T10:13:18.790Z,7.00
2017-10-18T10:15:47.106Z,6.37
2017-10-18T10:18:14.695Z,6.33
2017-10-18T10:20:42.231Z,6.20
2017-10-18T10:23:11.155Z,6.73
2017-10-18T10:25:38.667Z,6.57
2017-10-18T10:28:06.208Z,6.57
2017-10-18T10:30:33.714Z,6.50
2017-10-18T10:33:01.396Z,5.90
2017-10-18T10:35:29.708Z,6.50
2017-10-18T10:37:57.226Z,6.60
2017-10-18T10:40:24.786Z,6.97
2017-10-18T10:42:52.309Z,6.80
2017-10-18T10:45:19.851Z,6.67
2017-10-18T10:47:47.358Z,6.30
2017-10-18T10:50:14.889Z,7.00
2017-10-18T10:52:42.393Z,6.30
2017-10-18T10:55:09.939Z,6.70
2017-10-18T10:57:37.438Z,6.70
2017-10-18T11:00:04.984Z,6.93
2017-10-18T11:02:32.486Z,7.07
2017-10-18T11:05:00.055Z,6.43
2017-10-18T11:07:27.609Z,7.57
2017-10-18T11:09:55.106Z,7.00
2017-10-18T11:12:22.659Z,6.80
2017-10-18T11:14:50.179Z,6.80
2017-10-18T11:17:17.722Z,6.47
2017-10-18T11:19:45.243Z,6.60
2017-10-18T11:22:12.802Z,5.93
2017-10-18T11:24:40.327Z,6.70
2017-10-18T11:27:07.835Z,6.30
2017-10-18T11:29:35.446Z,6.17
2017-10-18T11:32:02.956Z,6.33
2017-10-18T11:34:31.280Z,7.13
2017-10-18T11:36:58.831Z,6.87
2017-10-18T11:39:26.428Z,7.53
2017-10-18T11:41:54.016Z,6.90
2017-10-18T11:44:21.568Z,7.17
2017-10-18T11:46:49.074Z,6.50
2017-10-18T11:49:16.607Z,7.00
2017-10-18T11:51:44.115Z,7.77
2017-10-18T11:54:11.679Z,7.00
2017-10-18T11:56:39.246Z,6.40
2017-10-18T11:59:06.898Z,6.03
2017-10-18T12:01:34.466Z,6.40
2017-10-18T12:04:02.794Z,7.67
2017-10-18T12:06:30.409Z,7.20
2017-10-18T12:08:57.948Z,7.17
2017-10-18T12:11:25.515Z,6.53
2017-10-18T12:13:53.026Z,7.50
2017-10-18T12:16:20.706Z,6.00
2017-10-18T12:18:48.221Z,7.60
2017-10-18T12:21:15.786Z,6.77
2017-10-18T12:23:43.290Z,6.47
2017-10-18T12:26:10.810Z,6.30
2017-10-18T12:28:38.483Z,6.83
2017-10-18T12:31:06.147Z,6.47
2017-10-18T12:33:34.486Z,6.47
2017-10-18T12:36:02.020Z,6.70
2017-10-18T12:38:30.340Z,6.30
2017-10-18T12:40:57.861Z,6.37
2017-10-18T12:43:25.513Z,7.33
2017-10-18T12:45:53.842Z,6.53
2017-10-18T12:48:21.352Z,6.33
2017-10-18T12:50:48.911Z,6.50
2017-10-18T12:53:16.450Z,6.90
2017-10-18T12:55:44.778Z,7.00
2017-10-18T12:58:12.300Z,5.90
2017-10-18T13:00:40.647Z,6.40
2017-10-18T13:03:08.167Z,6.43
2017-10-18T13:05:36.193Z,6.73
2017-10-18T13:08:03.708Z,6.90
2017-10-18T13:10:31.208Z,5.60
2017-10-18T13:12:58.779Z,5.90
2017-10-18T13:15:26.318Z,6.40
2017-10-18T13:17:53.863Z,6.63
2017-10-18T13:20:21.377Z,6.50
2017-10-18T13:22:48.934Z,6.10
2017-10-18T13:25:16.435Z,7.00
2017-10-18T13:27:44.755Z,6.30
2017-10-18T13:30:12.274Z,6.20
2017-10-18T13:32:39.803Z,6.60
2017-10-18T13:35:07.346Z,5.80
2017-10-18T13:37:35.612Z,6.13
2017-10-18T13:40:03.170Z,5.40
2017-10-18T13:42:30.674Z,6.10
2017-10-18T13:44:59.019Z,5.67
2017-10-18T13:47:26.522Z,6.10
2017-10-18T13:49:54.066Z,6.47
2017-10-18T13:52:21.572Z,5.83
2017-10-18T13:54:49.895Z,4.60
2017-10-18T13:57:17.407Z,5.67
2017-10-18T13:59:44.919Z,5.73
2017-10-18T14:02:12.474Z,5.10
2017-10-18T14:04:40.035Z,6.03
2017-10-18T14:07:07.575Z,5.43
2017-10-18T14:09:35.083Z,5.60
2017-10-18T14:12:02.638Z,5.60
2017-10-18T14:14:30.134Z,5.60
2017-10-18T14:16:57.637Z,4.93
2017-10-18T14:19:25.174Z,5.43
2017-10-18T14:21:52.678Z,5.70
2017-10-18T14:24:21.064Z,5.30
2017-10-18T14:26:48.578Z,5.90
2017-10-18T14:29:16.142Z,5.20
2017-10-18T14:31:43.658Z,5.27
2017-10-18T14:34:11.186Z,5.23
2017-10-18T14:36:38.694Z,5.17
2017-10-18T14:39:06.254Z,5.30
2017-10-18T14:41:33.858Z,4.93
2017-10-18T14:44:02.135Z,4.70
2017-10-18T14:46:29.688Z,4.63
2017-10-18T14:48:57.275Z,4.33
2017-10-18T14:51:25.687Z,4.47
2017-10-18T14:53:54.149Z,5.10
2017-10-18T14:56:21.867Z,5.30
2017-10-18T14:58:50.356Z,5.90
2017-10-18T15:01:17.908Z,5.10
2017-10-18T15:03:45.478Z,6.33
2017-10-18T15:06:13.897Z,5.07
2017-10-18T15:08:41.663Z,5.40
2017-10-18T15:11:09.314Z,4.60
2017-10-18T15:13:36.880Z,5.20
2017-10-18T15:16:04.386Z,5.30
2017-10-18T15:18:32.701Z,5.00
2017-10-18T15:21:00.239Z,4.97
2017-10-18T15:23:28.562Z,5.00
2017-10-18T15:25:56.137Z,4.80
2017-10-18T15:28:23.783Z,5.30
2017-10-18T15:30:52.128Z,5.17
2017-10-18T15:33:19.747Z,5.33
2017-10-18T15:35:47.309Z,5.47
2017-10-18T15:38:14.874Z,5.60
2017-10-18T15:40:42.399Z,5.80
2017-10-18T15:43:09.947Z,5.60
2017-10-18T15:45:37.520Z,6.00
2017-10-18T15:48:05.115Z,6.20
2017-10-18T15:50:32.685Z,5.80
2017-10-18T15:53:00.226Z,6.20
2017-10-18T15:55:28.591Z,6.23
2017-10-18T15:57:56.103Z,6.77
2017-10-18T16:00:23.660Z,6.13
2017-10-18T16:02:51.231Z,5.90
2017-10-18T16:05:19.755Z,6.40
2017-10-18T16:07:47.261Z,5.30
2017-10-18T16:10:14.870Z,6.07
2017-10-18T16:12:42.469Z,5.87
2017-10-18T16:15:09.971Z,5.23
2017-10-18T16:17:37.522Z,5.60
2017-10-18T16:20:05.020Z,5.70
2017-10-18T16:22:32.558Z,6.10
2017-10-18T16:25:00.070Z,5.67
2017-10-18T16:27:27.610Z,5.57
2017-10-18T16:29:55.115Z,6.20
2017-10-18T16:32:22.753Z,6.57
2017-10-18T16:34:50.307Z,6.83
2017-10-18T16:37:17.870Z,6.00
2017-10-18T16:39:46.155Z,6.50
2017-10-18T16:42:14.446Z,6.17
2017-10-18T16:44:42.771Z,7.23
2017-10-18T16:47:10.273Z,6.80
2017-10-18T16:49:37.811Z,6.20
2017-10-18T16:52:05.340Z,6.80
2017-10-18T16:54:32.882Z,7.20
2017-10-18T16:57:00.395Z,7.47
2017-10-18T16:59:27.951Z,6.23
2017-10-18T17:01:55.472Z,7.40
2017-10-18T17:04:23.057Z,8.40
2017-10-18T17:06:50.576Z,10.00
2017-10-18T17:09:18.087Z,10.70
2017-10-18T17:11:45.637Z,10.17
2017-10-18T17:14:13.142Z,9.70
2017-10-18T17:16:40.680Z,8.33
2017-10-18T17:19:09.138Z,8.20
2017-10-18T17:21:36.683Z,9.07
2017-10-18T17:24:04.195Z,8.80
2017-10-18T17:26:31.734Z,7.40
2017-10-18T17:28:59.251Z,7.57
2017-10-18T17:31:27.574Z,8.43
2017-10-18T17:33:55.090Z,7.83
2017-10-18T17:36:22.613Z,7.93
2017-10-18T17:38:50.216Z,8.20
2017-10-18T17:41:17.758Z,7.63
2017-10-18T17:43:46.099Z,8.70
2017-10-18T17:46:13.604Z,7.37
2017-10-18T17:48:41.955Z,7.97
2017-10-18T17:51:09.467Z,7.57
2017-10-18T17:53:37.774Z,8.10
2017-10-18T17:56:05.297Z,7.80
2017-10-18T17:58:32.856Z,7.27
2017-10-18T18:01:00.446Z,8.80
2017-10-18T18:03:28.006Z,7.47
2017-10-18T18:05:55.510Z,7.67
2017-10-18T18:08:23.834Z,8.47
2017-10-18T18:10:52.001Z,8.37
2017-10-18T18:13:19.554Z,7.67
2017-10-18T18:15:48.032Z,8.33
2017-10-18T18:18:15.675Z,10.00
2017-10-18T18:20:43.234Z,8.53
2017-10-18T18:23:10.743Z,9.10
2017-10-18T18:25:38.404Z,8.50
2017-10-18T18:28:06.075Z,9.37
2017-10-18T18:30:33.662Z,9.20
2017-10-18T18:33:01.382Z,9.13
2017-10-18T18:35:29.050Z,10.10
2017-10-18T18:37:56.699Z,10.40
2017-10-18T18:40:24.283Z,10.47
2017-10-18T18:42:52.566Z,10.63
2017-10-18T18:45:20.071Z,9.83
2017-10-18T18:47:47.728Z,8.87
2017-10-18T18:50:15.282Z,9.80
2017-10-18T18:52:42.835Z,10.27
2017-10-18T18:55:10.345Z,10.20
2017-10-18T18:57:38.852Z,10.13
2017-10-18T19:00:07.186Z,11.20
2017-10-18T19:02:34.706Z,10.90
2017-10-18T19:05:03.031Z,10.27
2017-10-18T19:07:30.563Z,9.90
2017-10-18T19:09:58.910Z,9.87
2017-10-18T19:12:26.431Z,11.10
2017-10-18T19:14:54.737Z,9.60
2017-10-18T19:17:22.277Z,9.80
2017-10-18T19:19:50.682Z,9.17
2017-10-18T19:22:18.967Z,9.23
2017-10-18T19:24:47.308Z,10.73
2017-10-18T19:27:14.901Z,10.03
2017-10-18T19:29:42.490Z,10.63
2017-10-18T19:32:10.122Z,11.50
2017-10-18T19:34:37.706Z,11.50
2017-10-18T19:37:10.314Z,11.70
2017-10-18T19:39:38.777Z,11.60
2017-10-18T19:42:06.471Z,11.97
2017-10-18T19:44:34.004Z,12.17
2017-10-18T19:47:01.721Z,12.83
2017-10-18T19:49:29.272Z,13.53
2017-10-18T19:51:57.145Z,12.87
2017-10-18T19:54:24.776Z,11.50
2017-10-18T19:56:52.591Z,12.10
2017-10-18T19:59:21.063Z,12.60
2017-10-18T20:01:48.982Z,11.93
2017-10-18T20:04:16.571Z,11.87
2017-10-18T20:06:44.160Z,12.47
2017-10-18T20:09:11.789Z,12.07
2017-10-18T20:11:39.383Z,11.50
2017-10-18T20:14:06.971Z,12.37
2017-10-18T20:16:34.531Z,12.30
2017-10-18T20:19:02.067Z,12.10
2017-10-18T20:21:29.691Z,13.90
2017-10-18T20:23:57.194Z,13.00
2017-10-18T20:26:25.519Z,13.17
2017-10-18T20:28:53.031Z,14.00
2017-10-18T20:31:20.608Z,13.30
2017-10-18T20:33:48.138Z,15.13
2017-10-18T20:36:15.647Z,14.00
2017-10-18T20:38:43.207Z,14.67
2017-10-18T20:41:10.743Z,13.30
2017-10-18T20:43:38.312Z,14.57
2017-10-18T20:46:05.830Z,15.50
2017-10-18T20:48:33.421Z,14.37
2017-10-18T20:51:01.078Z,16.20
2017-10-18T20:53:28.634Z,14.70
2017-10-18T20:55:56.170Z,15.20
2017-10-18T20:58:23.723Z,15.77
2017-10-18T21:00:51.991Z,16.40
2017-10-18T21:03:19.555Z,15.20
2017-10-18T21:05:47.067Z,15.57
2017-10-18T21:08:15.344Z,14.13
2017-10-18T21:10:43.650Z,14.13
2017-10-18T21:13:11.154Z,15.03
2017-10-18T21:15:38.695Z,15.50
2017-10-18T21:18:06.199Z,15.10
2017-10-18T21:20:33.795Z,13.80
2017-10-18T21:23:01.308Z,14.10
2017-10-18T21:25:29.607Z,13.30
2017-10-18T21:27:57.107Z,14.00
2017-10-18T21:30:24.659Z,14.80
2017-10-18T21:32:52.201Z,13.90
2017-10-18T21:35:19.740Z,14.97
2017-10-18T21:37:47.280Z,14.50
2017-10-18T21:40:14.786Z,13.97
2017-10-18T21:42:42.320Z,15.43
2017-10-18T21:45:09.830Z,15.90
2017-10-18T21:47:38.362Z,13.80
2017-10-18T21:50:06.635Z,14.70
2017-10-18T21:52:34.944Z,14.97
2017-10-18T21:55:03.214Z,14.37
2017-10-18T21:57:30.758Z,13.13
2017-10-18T21:59:58.273Z,13.90
2017-10-18T22:02:26.630Z,14.40
2017-10-18T22:04:54.182Z,15.03
2017-10-18T22:07:21.820Z,14.00
2017-10-18T22:09:49.363Z,16.07
2017-10-18T22:12:16.875Z,16.27
2017-10-18T22:14:44.414Z,16.53
2017-10-18T22:17:12.695Z,19.20
2017-10-18T22:19:40.231Z,16.63
2017-10-18T22:22:07.739Z,15.63
2017-10-18T22:24:35.297Z,15.67
2017-10-18T22:27:02.810Z,15.80
2017-10-18T22:29:30.323Z,17.03
2017-10-18T22:31:57.866Z,16.27
2017-10-18T22:34:25.452Z,17.03
2017-10-18T22:36:53.181Z,16.17
2017-10-18T22:39:20.796Z,15.50
2017-10-18T22:41:48.434Z,16.47
2017-10-18T22:44:16.781Z,16.23
2017-10-18T22:46:44.334Z,16.57
2017-10-18T22:49:11.925Z,17.50
2017-10-18T22:51:39.556Z,16.50
2017-10-18T22:54:07.831Z,18.20
2017-10-18T22:56:35.327Z,19.97
2017-10-18T22:59:02.898Z,18.63
2017-10-18T23:01:30.441Z,19.63
2017-10-18T23:03:58.024Z,19.77
2017-10-18T23:06:25.563Z,20.50
2017-10-18T23:08:53.603Z,21.33
2017-10-18T23:11:21.270Z,20.20
2017-10-18T23:13:48.934Z,19.93
2017-10-18T23:16:17.278Z,20.47
2017-10-18T23:18:44.830Z,20.53
2017-10-18T23:21:12.414Z,19.83
2017-10-18T23:23:39.993Z,18.87
2017-10-18T23:26:07.558Z,21.10
2017-10-18T23:28:35.127Z,20.20
2017-10-18T23:31:02.724Z,19.03
2017-10-18T23:33:30.301Z,17.90
2017-10-18T23:35:57.898Z,17.50
2017-10-18T23:38:25.428Z,16.87
2017-10-18T23:40:53.047Z,16.87
2017-10-18T23:43:20.784Z,17.90
2017-10-18T23:45:48.406Z,17.10
2017-10-18T23:48:16.065Z,16.70
2017-10-18T23:50:43.663Z,17.77
2017-10-18T23:53:11.224Z,19.07
2017-10-18T23:55:38.965Z,18.40
2017-10-18T23:58:06.698Z,20.13
